Birch Hills, Canada
Current Conditions -  °F | °C
As of 6:00 PM on Saturday 20 Dec 2014 (Local Time) from CYPA Reporting Station
Light Snow Light Snow  
Wind Chill: 11°   Ceiling: 700
Heat Index: 19°   Visibility: 12mi
Dew Point: 18°   Wind: 6mph
Humidity: 93%   Direction: 90°E
Pressure: 29.69"   Gusts: NA
Location:  52.98°N, 105.44°W
Report Text: CYPA 210000Z 09005KT 12SM -SN OVC007 M07/M08 A2969 RMK SC8 SLP085
Loading
Personal Weather Stations






























Interactive Weather Map New forecast layout! Learn more

10-Day Weather Forecast

Advertisements
Track Severe Weather on mobile